sensor_id;sensor_type;location;lat;lon;timestamp;P1;durP1;ratioP1;P2;durP2;ratioP2
50647;SDS011;36617;52.002;6.034;2023-04-24T00:01:59;3.22;;;1.52;;
50647;SDS011;36617;52.002;6.034;2023-04-24T00:04:25;2.33;;;1.20;;
50647;SDS011;36617;52.002;6.034;2023-04-24T00:06:51;2.93;;;1.50;;
50647;SDS011;36617;52.002;6.034;2023-04-24T00:09:18;2.28;;;1.30;;
50647;SDS011;36617;52.002;6.034;2023-04-24T00:11:44;3.37;;;1.40;;
50647;SDS011;36617;52.002;6.034;2023-04-24T00:14:09;3.73;;;1.43;;
50647;SDS011;36617;52.002;6.034;2023-04-24T00:16:34;2.90;;;1.50;;
50647;SDS011;36617;52.002;6.034;2023-04-24T00:18:59;3.20;;;1.43;;
50647;SDS011;36617;52.002;6.034;2023-04-24T00:21:25;1.98;;;1.15;;
50647;SDS011;36617;52.002;6.034;2023-04-24T00:23:51;3.50;;;1.43;;
50647;SDS011;36617;52.002;6.034;2023-04-24T00:26:16;2.20;;;1.30;;
50647;SDS011;36617;52.002;6.034;2023-04-24T00:28:41;2.43;;;1.40;;
50647;SDS011;36617;52.002;6.034;2023-04-24T00:31:07;2.97;;;1.30;;
50647;SDS011;36617;52.002;6.034;2023-04-24T00:33:32;2.73;;;1.30;;
50647;SDS011;36617;52.002;6.034;2023-04-24T00:35:57;2.70;;;1.30;;
50647;SDS011;36617;52.002;6.034;2023-04-24T00:38:22;2.93;;;1.30;;
50647;SDS011;36617;52.002;6.034;2023-04-24T00:40:49;2.90;;;1.30;;
50647;SDS011;36617;52.002;6.034;2023-04-24T00:43:18;2.67;;;1.27;;
50647;SDS011;36617;52.002;6.034;2023-04-24T00:45:44;2.20;;;1.17;;
50647;SDS011;36617;52.002;6.034;2023-04-24T00:48:09;2.67;;;1.20;;
50647;SDS011;36617;52.002;6.034;2023-04-24T00:50:35;2.43;;;1.20;;
50647;SDS011;36617;52.002;6.034;2023-04-24T00:53:00;2.45;;;1.02;;
50647;SDS011;36617;52.002;6.034;2023-04-24T00:55:26;2.13;;;1.10;;
50647;SDS011;36617;52.002;6.034;2023-04-24T00:57:51;2.10;;;1.10;;
50647;SDS011;36617;52.002;6.034;2023-04-24T01:00:16;1.93;;;1.10;;
50647;SDS011;36617;52.002;6.034;2023-04-24T01:02:43;2.97;;;1.27;;
50647;SDS011;36617;52.002;6.034;2023-04-24T01:05:10;1.63;;;0.90;;
50647;SDS011;36617;52.002;6.034;2023-04-24T01:07:36;2.40;;;1.10;;
50647;SDS011;36617;52.002;6.034;2023-04-24T01:10:02;1.83;;;1.10;;
50647;SDS011;36617;52.002;6.034;2023-04-24T01:12:27;2.00;;;1.10;;
50647;SDS011;36617;52.002;6.034;2023-04-24T01:14:52;3.20;;;1.30;;
50647;SDS011;36617;52.002;6.034;2023-04-24T01:17:18;1.57;;;1.10;;
50647;SDS011;36617;52.002;6.034;2023-04-24T01:19:43;1.97;;;1.10;;
50647;SDS011;36617;52.002;6.034;2023-04-24T01:22:13;2.20;;;1.20;;
50647;SDS011;36617;52.002;6.034;2023-04-24T01:24:38;2.20;;;1.23;;
50647;SDS011;36617;52.002;6.034;2023-04-24T01:27:04;2.70;;;1.13;;
50647;SDS011;36617;52.002;6.034;2023-04-24T01:29:29;3.63;;;1.40;;
50647;SDS011;36617;52.002;6.034;2023-04-24T01:31:54;2.60;;;1.33;;
50647;SDS011;36617;52.002;6.034;2023-04-24T01:34:20;3.17;;;1.40;;
50647;SDS011;36617;52.002;6.034;2023-04-24T01:36:45;3.07;;;1.50;;
50647;SDS011;36617;52.002;6.034;2023-04-24T01:39:11;2.00;;;1.27;;
50647;SDS011;36617;52.002;6.034;2023-04-24T01:41:36;2.30;;;1.50;;
50647;SDS011;36617;52.002;6.034;2023-04-24T01:44:01;2.80;;;1.50;;
50647;SDS011;36617;52.002;6.034;2023-04-24T01:46:27;3.47;;;1.60;;
50647;SDS011;36617;52.002;6.034;2023-04-24T01:48:52;2.37;;;1.50;;
50647;SDS011;36617;52.002;6.034;2023-04-24T01:51:17;2.97;;;1.37;;
50647;SDS011;36617;52.002;6.034;2023-04-24T01:53:42;2.80;;;1.53;;
50647;SDS011;36617;52.002;6.034;2023-04-24T01:56:08;3.43;;;1.50;;
50647;SDS011;36617;52.002;6.034;2023-04-24T01:58:33;2.72;;;1.45;;
50647;SDS011;36617;52.002;6.034;2023-04-24T02:00:59;2.80;;;1.50;;
50647;SDS011;36617;52.002;6.034;2023-04-24T02:03:25;2.47;;;1.50;;
50647;SDS011;36617;52.002;6.034;2023-04-24T02:05:50;2.90;;;1.70;;
50647;SDS011;36617;52.002;6.034;2023-04-24T02:08:15;3.10;;;1.50;;
50647;SDS011;36617;52.002;6.034;2023-04-24T02:10:40;3.03;;;1.50;;
50647;SDS011;36617;52.002;6.034;2023-04-24T02:13:05;2.70;;;1.50;;
50647;SDS011;36617;52.002;6.034;2023-04-24T02:15:31;2.87;;;1.40;;
50647;SDS011;36617;52.002;6.034;2023-04-24T02:17:56;2.97;;;1.40;;
50647;SDS011;36617;52.002;6.034;2023-04-24T02:20:21;2.90;;;1.57;;
50647;SDS011;36617;52.002;6.034;2023-04-24T02:22:46;2.70;;;1.60;;
50647;SDS011;36617;52.002;6.034;2023-04-24T02:25:11;3.23;;;1.50;;
50647;SDS011;36617;52.002;6.034;2023-04-24T02:27:37;2.77;;;1.40;;
50647;SDS011;36617;52.002;6.034;2023-04-24T02:30:02;3.20;;;1.60;;
50647;SDS011;36617;52.002;6.034;2023-04-24T02:32:28;3.20;;;1.67;;
50647;SDS011;36617;52.002;6.034;2023-04-24T02:34:53;3.30;;;1.80;;
50647;SDS011;36617;52.002;6.034;2023-04-24T02:37:18;3.47;;;1.70;;
50647;SDS011;36617;52.002;6.034;2023-04-24T02:39:43;3.13;;;1.90;;
50647;SDS011;36617;52.002;6.034;2023-04-24T02:42:08;3.27;;;1.90;;
50647;SDS011;36617;52.002;6.034;2023-04-24T02:44:34;3.33;;;1.90;;
50647;SDS011;36617;52.002;6.034;2023-04-24T02:46:59;3.15;;;1.73;;
50647;SDS011;36617;52.002;6.034;2023-04-24T02:49:24;3.43;;;1.73;;
50647;SDS011;36617;52.002;6.034;2023-04-24T02:51:49;3.30;;;1.95;;
50647;SDS011;36617;52.002;6.034;2023-04-24T02:54:14;3.60;;;1.80;;
50647;SDS011;36617;52.002;6.034;2023-04-24T02:56:39;3.67;;;1.93;;
50647;SDS011;36617;52.002;6.034;2023-04-24T02:59:05;3.57;;;2.03;;
50647;SDS011;36617;52.002;6.034;2023-04-24T03:01:30;4.00;;;2.10;;
50647;SDS011;36617;52.002;6.034;2023-04-24T03:03:55;3.30;;;2.00;;
50647;SDS011;36617;52.002;6.034;2023-04-24T03:06:20;3.90;;;2.03;;
50647;SDS011;36617;52.002;6.034;2023-04-24T03:08:46;3.90;;;2.00;;
50647;SDS011;36617;52.002;6.034;2023-04-24T03:11:11;3.73;;;2.13;;
50647;SDS011;36617;52.002;6.034;2023-04-24T03:13:36;2.93;;;1.80;;
50647;SDS011;36617;52.002;6.034;2023-04-24T03:16:02;3.83;;;2.03;;
50647;SDS011;36617;52.002;6.034;2023-04-24T03:18:27;3.07;;;1.80;;
50647;SDS011;36617;52.002;6.034;2023-04-24T03:20:52;3.80;;;2.00;;
50647;SDS011;36617;52.002;6.034;2023-04-24T03:23:17;3.03;;;2.00;;
50647;SDS011;36617;52.002;6.034;2023-04-24T03:25:42;3.83;;;1.90;;
50647;SDS011;36617;52.002;6.034;2023-04-24T03:28:08;3.17;;;2.00;;
50647;SDS011;36617;52.002;6.034;2023-04-24T03:30:33;3.43;;;2.00;;
50647;SDS011;36617;52.002;6.034;2023-04-24T03:32:58;3.23;;;1.90;;
50647;SDS011;36617;52.002;6.034;2023-04-24T03:35:23;3.90;;;2.20;;
50647;SDS011;36617;52.002;6.034;2023-04-24T03:37:48;3.40;;;2.10;;
50647;SDS011;36617;52.002;6.034;2023-04-24T03:40:14;3.60;;;2.20;;
50647;SDS011;36617;52.002;6.034;2023-04-24T03:42:39;3.70;;;2.00;;
50647;SDS011;36617;52.002;6.034;2023-04-24T03:45:04;3.53;;;1.93;;
50647;SDS011;36617;52.002;6.034;2023-04-24T03:47:30;3.70;;;2.00;;
50647;SDS011;36617;52.002;6.034;2023-04-24T03:49:55;3.27;;;2.20;;
50647;SDS011;36617;52.002;6.034;2023-04-24T03:52:20;3.60;;;2.30;;
50647;SDS011;36617;52.002;6.034;2023-04-24T03:54:46;3.60;;;2.10;;
50647;SDS011;36617;52.002;6.034;2023-04-24T03:57:11;3.30;;;2.00;;
50647;SDS011;36617;52.002;6.034;2023-04-24T03:59:36;4.23;;;2.43;;
50647;SDS011;36617;52.002;6.034;2023-04-24T04:02:01;3.80;;;2.30;;
50647;SDS011;36617;52.002;6.034;2023-04-24T04:04:26;3.43;;;2.17;;
50647;SDS011;36617;52.002;6.034;2023-04-24T04:06:51;4.17;;;2.40;;
50647;SDS011;36617;52.002;6.034;2023-04-24T04:09:17;4.30;;;2.40;;
50647;SDS011;36617;52.002;6.034;2023-04-24T04:11:42;3.80;;;2.60;;
50647;SDS011;36617;52.002;6.034;2023-04-24T04:14:07;4.23;;;2.70;;
50647;SDS011;36617;52.002;6.034;2023-04-24T04:16:32;4.70;;;2.93;;
50647;SDS011;36617;52.002;6.034;2023-04-24T04:18:57;4.13;;;2.70;;
50647;SDS011;36617;52.002;6.034;2023-04-24T04:21:23;4.82;;;2.72;;
50647;SDS011;36617;52.002;6.034;2023-04-24T04:23:48;4.50;;;2.67;;
50647;SDS011;36617;52.002;6.034;2023-04-24T04:26:13;4.47;;;2.90;;
50647;SDS011;36617;52.002;6.034;2023-04-24T04:28:39;4.37;;;2.90;;
50647;SDS011;36617;52.002;6.034;2023-04-24T04:31:04;4.13;;;2.50;;
50647;SDS011;36617;52.002;6.034;2023-04-24T04:33:29;4.95;;;2.72;;
50647;SDS011;36617;52.002;6.034;2023-04-24T04:35:55;5.03;;;2.90;;
50647;SDS011;36617;52.002;6.034;2023-04-24T04:38:23;4.78;;;2.90;;
50647;SDS011;36617;52.002;6.034;2023-04-24T04:40:48;4.30;;;2.73;;
50647;SDS011;36617;52.002;6.034;2023-04-24T04:43:14;4.50;;;2.80;;
50647;SDS011;36617;52.002;6.034;2023-04-24T04:45:40;5.97;;;3.38;;
50647;SDS011;36617;52.002;6.034;2023-04-24T04:48:06;5.22;;;3.42;;
50647;SDS011;36617;52.002;6.034;2023-04-24T04:50:32;5.37;;;3.57;;
50647;SDS011;36617;52.002;6.034;2023-04-24T04:52:58;5.57;;;3.40;;
50647;SDS011;36617;52.002;6.034;2023-04-24T04:55:23;5.70;;;3.70;;
50647;SDS011;36617;52.002;6.034;2023-04-24T04:57:48;5.57;;;3.90;;
50647;SDS011;36617;52.002;6.034;2023-04-24T05:00:13;5.33;;;3.90;;
50647;SDS011;36617;52.002;6.034;2023-04-24T05:02:38;6.13;;;4.30;;
50647;SDS011;36617;52.002;6.034;2023-04-24T05:05:04;6.03;;;4.13;;
50647;SDS011;36617;52.002;6.034;2023-04-24T05:07:31;5.85;;;4.30;;
50647;SDS011;36617;52.002;6.034;2023-04-24T05:09:56;6.05;;;4.35;;
50647;SDS011;36617;52.002;6.034;2023-04-24T05:12:21;5.87;;;4.40;;
50647;SDS011;36617;52.002;6.034;2023-04-24T05:14:46;5.97;;;4.63;;
50647;SDS011;36617;52.002;6.034;2023-04-24T05:17:12;5.57;;;4.20;;
50647;SDS011;36617;52.002;6.034;2023-04-24T05:19:37;7.03;;;5.23;;
50647;SDS011;36617;52.002;6.034;2023-04-24T05:22:03;6.40;;;4.60;;
50647;SDS011;36617;52.002;6.034;2023-04-24T05:24:30;6.70;;;5.43;;
50647;SDS011;36617;52.002;6.034;2023-04-24T05:26:55;6.10;;;4.80;;
50647;SDS011;36617;52.002;6.034;2023-04-24T05:29:20;6.50;;;5.20;;
50647;SDS011;36617;52.002;6.034;2023-04-24T05:31:46;7.60;;;5.63;;
50647;SDS011;36617;52.002;6.034;2023-04-24T05:34:11;7.30;;;5.50;;
50647;SDS011;36617;52.002;6.034;2023-04-24T05:36:36;6.70;;;5.40;;
50647;SDS011;36617;52.002;6.034;2023-04-24T05:39:01;7.53;;;5.57;;
50647;SDS011;36617;52.002;6.034;2023-04-24T05:41:28;7.03;;;5.60;;
50647;SDS011;36617;52.002;6.034;2023-04-24T05:43:53;7.30;;;5.50;;
50647;SDS011;36617;52.002;6.034;2023-04-24T05:46:18;6.30;;;5.07;;
50647;SDS011;36617;52.002;6.034;2023-04-24T05:48:44;6.60;;;5.00;;
50647;SDS011;36617;52.002;6.034;2023-04-24T05:51:09;7.00;;;5.13;;
50647;SDS011;36617;52.002;6.034;2023-04-24T05:53:35;6.53;;;4.97;;
50647;SDS011;36617;52.002;6.034;2023-04-24T05:56:00;6.60;;;5.03;;
50647;SDS011;36617;52.002;6.034;2023-04-24T05:58:25;6.90;;;4.80;;
50647;SDS011;36617;52.002;6.034;2023-04-24T06:00:50;6.90;;;4.90;;
50647;SDS011;36617;52.002;6.034;2023-04-24T06:03:15;6.00;;;4.60;;
50647;SDS011;36617;52.002;6.034;2023-04-24T06:05:41;5.50;;;4.03;;
50647;SDS011;36617;52.002;6.034;2023-04-24T06:08:06;5.63;;;4.00;;
50647;SDS011;36617;52.002;6.034;2023-04-24T06:10:31;5.67;;;3.90;;
50647;SDS011;36617;52.002;6.034;2023-04-24T06:12:57;5.20;;;3.57;;
50647;SDS011;36617;52.002;6.034;2023-04-24T06:15:25;5.47;;;3.55;;
50647;SDS011;36617;52.002;6.034;2023-04-24T06:17:50;4.87;;;3.40;;
50647;SDS011;36617;52.002;6.034;2023-04-24T06:20:15;5.27;;;3.47;;
50647;SDS011;36617;52.002;6.034;2023-04-24T06:22:40;4.60;;;3.13;;
50647;SDS011;36617;52.002;6.034;2023-04-24T06:25:06;4.57;;;2.90;;
50647;SDS011;36617;52.002;6.034;2023-04-24T06:27:32;4.60;;;3.00;;
50647;SDS011;36617;52.002;6.034;2023-04-24T06:29:57;5.07;;;2.80;;
50647;SDS011;36617;52.002;6.034;2023-04-24T06:32:22;4.43;;;2.87;;
50647;SDS011;36617;52.002;6.034;2023-04-24T06:34:48;4.60;;;2.92;;
50647;SDS011;36617;52.002;6.034;2023-04-24T06:37:13;4.93;;;2.87;;
50647;SDS011;36617;52.002;6.034;2023-04-24T06:39:39;7.20;;;2.80;;
50647;SDS011;36617;52.002;6.034;2023-04-24T06:42:04;4.83;;;2.70;;
50647;SDS011;36617;52.002;6.034;2023-04-24T06:44:29;4.87;;;2.80;;
50647;SDS011;36617;52.002;6.034;2023-04-24T06:46:55;7.30;;;2.77;;
50647;SDS011;36617;52.002;6.034;2023-04-24T06:49:20;4.30;;;2.40;;
50647;SDS011;36617;52.002;6.034;2023-04-24T06:51:45;5.25;;;2.47;;
50647;SDS011;36617;52.002;6.034;2023-04-24T06:54:10;5.17;;;2.50;;
50647;SDS011;36617;52.002;6.034;2023-04-24T06:56:35;8.83;;;3.83;;
50647;SDS011;36617;52.002;6.034;2023-04-24T06:59:01;6.90;;;3.40;;
50647;SDS011;36617;52.002;6.034;2023-04-24T07:01:26;7.37;;;3.53;;
50647;SDS011;36617;52.002;6.034;2023-04-24T07:03:52;6.07;;;3.00;;
50647;SDS011;36617;52.002;6.034;2023-04-24T07:06:17;7.50;;;3.10;;
50647;SDS011;36617;52.002;6.034;2023-04-24T07:08:43;7.32;;;2.60;;
50647;SDS011;36617;52.002;6.034;2023-04-24T07:11:08;4.83;;;2.60;;
50647;SDS011;36617;52.002;6.034;2023-04-24T07:13:34;5.47;;;2.77;;
50647;SDS011;36617;52.002;6.034;2023-04-24T07:16:00;7.10;;;2.60;;
50647;SDS011;36617;52.002;6.034;2023-04-24T07:18:28;7.67;;;2.50;;
50647;SDS011;36617;52.002;6.034;2023-04-24T07:20:56;5.80;;;2.33;;
50647;SDS011;36617;52.002;6.034;2023-04-24T07:23:22;10.57;;;2.53;;
50647;SDS011;36617;52.002;6.034;2023-04-24T07:25:47;7.50;;;2.33;;
50647;SDS011;36617;52.002;6.034;2023-04-24T07:28:12;7.03;;;2.27;;
50647;SDS011;36617;52.002;6.034;2023-04-24T07:30:37;7.77;;;2.40;;
50647;SDS011;36617;52.002;6.034;2023-04-24T07:33:02;11.03;;;2.70;;
50647;SDS011;36617;52.002;6.034;2023-04-24T07:35:27;8.20;;;2.37;;
50647;SDS011;36617;52.002;6.034;2023-04-24T07:37:53;5.90;;;2.23;;
50647;SDS011;36617;52.002;6.034;2023-04-24T07:40:18;9.68;;;2.22;;
50647;SDS011;36617;52.002;6.034;2023-04-24T07:42:44;5.93;;;2.00;;
50647;SDS011;36617;52.002;6.034;2023-04-24T07:45:09;7.00;;;2.10;;
50647;SDS011;36617;52.002;6.034;2023-04-24T07:47:34;7.37;;;2.10;;
50647;SDS011;36617;52.002;6.034;2023-04-24T07:50:01;6.97;;;1.90;;
50647;SDS011;36617;52.002;6.034;2023-04-24T07:52:26;5.80;;;1.80;;
50647;SDS011;36617;52.002;6.034;2023-04-24T07:54:51;4.80;;;1.60;;
50647;SDS011;36617;52.002;6.034;2023-04-24T07:57:23;6.05;;;1.80;;
50647;SDS011;36617;52.002;6.034;2023-04-24T07:59:48;5.53;;;1.57;;
50647;SDS011;36617;52.002;6.034;2023-04-24T08:02:13;4.87;;;1.63;;
50647;SDS011;36617;52.002;6.034;2023-04-24T08:04:39;3.60;;;1.50;;
50647;SDS011;36617;52.002;6.034;2023-04-24T08:07:04;4.90;;;1.50;;
50647;SDS011;36617;52.002;6.034;2023-04-24T08:09:30;4.63;;;1.50;;
50647;SDS011;36617;52.002;6.034;2023-04-24T08:11:55;4.17;;;1.60;;
50647;SDS011;36617;52.002;6.034;2023-04-24T08:14:21;4.27;;;1.57;;
50647;SDS011;36617;52.002;6.034;2023-04-24T08:16:46;5.10;;;1.70;;
50647;SDS011;36617;52.002;6.034;2023-04-24T08:19:11;3.13;;;1.48;;
50647;SDS011;36617;52.002;6.034;2023-04-24T08:21:37;4.57;;;1.57;;
50647;SDS011;36617;52.002;6.034;2023-04-24T08:24:02;6.03;;;1.80;;
50647;SDS011;36617;52.002;6.034;2023-04-24T08:26:30;5.43;;;1.80;;
50647;SDS011;36617;52.002;6.034;2023-04-24T08:28:55;3.95;;;2.00;;
50647;SDS011;36617;52.002;6.034;2023-04-24T08:31:20;4.17;;;1.73;;
50647;SDS011;36617;52.002;6.034;2023-04-24T08:33:45;6.40;;;2.00;;
50647;SDS011;36617;52.002;6.034;2023-04-24T08:36:12;5.25;;;1.80;;
50647;SDS011;36617;52.002;6.034;2023-04-24T08:38:37;4.57;;;1.70;;
50647;SDS011;36617;52.002;6.034;2023-04-24T08:41:03;4.45;;;1.80;;
50647;SDS011;36617;52.002;6.034;2023-04-24T08:43:29;4.68;;;1.80;;
50647;SDS011;36617;52.002;6.034;2023-04-24T08:45:55;5.70;;;1.80;;
50647;SDS011;36617;52.002;6.034;2023-04-24T08:48:20;4.67;;;1.70;;
50647;SDS011;36617;52.002;6.034;2023-04-24T08:50:46;4.47;;;1.65;;
50647;SDS011;36617;52.002;6.034;2023-04-24T08:53:13;5.43;;;1.80;;
50647;SDS011;36617;52.002;6.034;2023-04-24T08:55:39;4.43;;;1.80;;
50647;SDS011;36617;52.002;6.034;2023-04-24T08:58:05;4.35;;;2.10;;
50647;SDS011;36617;52.002;6.034;2023-04-24T09:00:30;6.20;;;1.70;;
50647;SDS011;36617;52.002;6.034;2023-04-24T09:02:56;4.57;;;1.90;;
50647;SDS011;36617;52.002;6.034;2023-04-24T09:05:22;4.68;;;1.80;;
50647;SDS011;36617;52.002;6.034;2023-04-24T09:07:49;6.38;;;2.10;;
50647;SDS011;36617;52.002;6.034;2023-04-24T09:10:18;5.65;;;1.73;;
50647;SDS011;36617;52.002;6.034;2023-04-24T09:12:43;4.63;;;2.00;;
50647;SDS011;36617;52.002;6.034;2023-04-24T09:15:09;5.07;;;1.80;;
50647;SDS011;36617;52.002;6.034;2023-04-24T09:17:34;3.97;;;1.83;;
50647;SDS011;36617;52.002;6.034;2023-04-24T09:20:00;4.95;;;1.60;;
50647;SDS011;36617;52.002;6.034;2023-04-24T09:22:25;3.37;;;1.50;;
50647;SDS011;36617;52.002;6.034;2023-04-24T09:25:01;5.07;;;1.70;;
50647;SDS011;36617;52.002;6.034;2023-04-24T09:27:28;4.82;;;1.80;;
50647;SDS011;36617;52.002;6.034;2023-04-24T09:29:53;5.05;;;1.63;;
50647;SDS011;36617;52.002;6.034;2023-04-24T09:32:20;3.88;;;1.70;;
50647;SDS011;36617;52.002;6.034;2023-04-24T09:37:34;4.75;;;1.75;;
50647;SDS011;36617;52.002;6.034;2023-04-24T09:42:41;4.35;;;1.70;;
50647;SDS011;36617;52.002;6.034;2023-04-24T09:45:08;3.10;;;1.57;;
50647;SDS011;36617;52.002;6.034;2023-04-24T09:47:40;4.68;;;1.70;;
50647;SDS011;36617;52.002;6.034;2023-04-24T09:50:09;2.85;;;1.50;;
50647;SDS011;36617;52.002;6.034;2023-04-24T09:52:35;4.63;;;1.75;;
50647;SDS011;36617;52.002;6.034;2023-04-24T09:55:10;4.25;;;1.42;;
50647;SDS011;36617;52.002;6.034;2023-04-24T09:57:35;3.65;;;1.50;;
50647;SDS011;36617;52.002;6.034;2023-04-24T10:00:00;4.13;;;1.50;;
50647;SDS011;36617;52.002;6.034;2023-04-24T10:02:25;6.37;;;1.67;;
50647;SDS011;36617;52.002;6.034;2023-04-24T10:04:57;5.50;;;1.70;;
50647;SDS011;36617;52.002;6.034;2023-04-24T10:07:25;4.38;;;1.65;;
50647;SDS011;36617;52.002;6.034;2023-04-24T10:09:50;5.82;;;1.60;;
50647;SDS011;36617;52.002;6.034;2023-04-24T10:12:16;3.20;;;1.55;;
50647;SDS011;36617;52.002;6.034;2023-04-24T10:14:41;3.77;;;1.60;;
50647;SDS011;36617;52.002;6.034;2023-04-24T10:17:09;4.05;;;1.60;;
50647;SDS011;36617;52.002;6.034;2023-04-24T10:19:35;4.53;;;1.53;;
50647;SDS011;36617;52.002;6.034;2023-04-24T10:22:02;4.82;;;1.70;;
50647;SDS011;36617;52.002;6.034;2023-04-24T10:24:27;4.97;;;1.60;;
50647;SDS011;36617;52.002;6.034;2023-04-24T10:26:53;5.13;;;1.70;;
50647;SDS011;36617;52.002;6.034;2023-04-24T10:29:19;4.65;;;1.55;;
50647;SDS011;36617;52.002;6.034;2023-04-24T10:31:44;4.40;;;1.73;;
50647;SDS011;36617;52.002;6.034;2023-04-24T10:34:13;8.63;;;1.60;;
50647;SDS011;36617;52.002;6.034;2023-04-24T10:36:40;8.80;;;1.90;;
50647;SDS011;36617;52.002;6.034;2023-04-24T10:39:07;5.72;;;1.60;;
50647;SDS011;36617;52.002;6.034;2023-04-24T10:41:33;6.63;;;1.80;;
50647;SDS011;36617;52.002;6.034;2023-04-24T10:44:05;7.78;;;1.90;;
50647;SDS011;36617;52.002;6.034;2023-04-24T10:46:31;6.10;;;1.67;;
50647;SDS011;36617;52.002;6.034;2023-04-24T10:48:56;8.47;;;1.67;;
50647;SDS011;36617;52.002;6.034;2023-04-24T10:51:23;6.18;;;1.75;;
50647;SDS011;36617;52.002;6.034;2023-04-24T10:53:52;6.82;;;1.60;;
50647;SDS011;36617;52.002;6.034;2023-04-24T10:56:17;4.88;;;1.67;;
50647;SDS011;36617;52.002;6.034;2023-04-24T11:03:55;4.93;;;1.70;;
50647;SDS011;36617;52.002;6.034;2023-04-24T11:06:28;5.32;;;1.50;;
50647;SDS011;36617;52.002;6.034;2023-04-24T11:08:57;4.82;;;1.90;;
50647;SDS011;36617;52.002;6.034;2023-04-24T11:11:23;5.00;;;1.50;;
50647;SDS011;36617;52.002;6.034;2023-04-24T11:16:25;4.65;;;1.52;;
50647;SDS011;36617;52.002;6.034;2023-04-24T11:18:51;5.80;;;1.80;;
50647;SDS011;36617;52.002;6.034;2023-04-24T11:21:19;3.65;;;1.42;;
50647;SDS011;36617;52.002;6.034;2023-04-24T11:23:45;5.23;;;1.73;;
50647;SDS011;36617;52.002;6.034;2023-04-24T11:26:11;5.20;;;1.50;;
50647;SDS011;36617;52.002;6.034;2023-04-24T11:28:37;4.43;;;1.52;;
50647;SDS011;36617;52.002;6.034;2023-04-24T11:33:46;5.50;;;1.52;;
50647;SDS011;36617;52.002;6.034;2023-04-24T11:36:11;4.53;;;1.30;;
50647;SDS011;36617;52.002;6.034;2023-04-24T11:38:38;5.82;;;1.40;;
50647;SDS011;36617;52.002;6.034;2023-04-24T11:41:03;3.72;;;1.30;;
50647;SDS011;36617;52.002;6.034;2023-04-24T11:43:30;2.90;;;1.40;;
50647;SDS011;36617;52.002;6.034;2023-04-24T11:45:59;4.03;;;1.40;;
50647;SDS011;36617;52.002;6.034;2023-04-24T11:48:25;8.27;;;1.73;;
50647;SDS011;36617;52.002;6.034;2023-04-24T11:50:50;7.30;;;1.70;;
50647;SDS011;36617;52.002;6.034;2023-04-24T11:53:15;5.43;;;1.73;;
50647;SDS011;36617;52.002;6.034;2023-04-24T11:55:40;5.63;;;1.50;;
50647;SDS011;36617;52.002;6.034;2023-04-24T11:58:05;6.60;;;1.43;;
50647;SDS011;36617;52.002;6.034;2023-04-24T12:00:31;5.73;;;1.60;;
50647;SDS011;36617;52.002;6.034;2023-04-24T12:05:30;6.03;;;1.45;;
50647;SDS011;36617;52.002;6.034;2023-04-24T12:07:59;5.53;;;1.50;;
50647;SDS011;36617;52.002;6.034;2023-04-24T12:10:25;5.97;;;1.47;;
50647;SDS011;36617;52.002;6.034;2023-04-24T12:12:51;5.73;;;1.60;;
50647;SDS011;36617;52.002;6.034;2023-04-24T12:15:17;9.23;;;1.60;;
50647;SDS011;36617;52.002;6.034;2023-04-24T12:17:42;5.28;;;1.65;;
50647;SDS011;36617;52.002;6.034;2023-04-24T12:20:09;4.07;;;1.40;;
50647;SDS011;36617;52.002;6.034;2023-04-24T12:22:47;5.03;;;1.30;;
50647;SDS011;36617;52.002;6.034;2023-04-24T12:25:14;5.70;;;1.20;;
50647;SDS011;36617;52.002;6.034;2023-04-24T12:27:39;5.13;;;1.33;;
50647;SDS011;36617;52.002;6.034;2023-04-24T12:30:05;4.43;;;1.30;;
50647;SDS011;36617;52.002;6.034;2023-04-24T12:32:30;4.23;;;1.30;;
50647;SDS011;36617;52.002;6.034;2023-04-24T12:34:56;4.67;;;1.20;;
50647;SDS011;36617;52.002;6.034;2023-04-24T12:37:24;4.82;;;1.13;;
50647;SDS011;36617;52.002;6.034;2023-04-24T12:40:04;4.10;;;1.30;;
50647;SDS011;36617;52.002;6.034;2023-04-24T12:42:30;2.70;;;1.13;;
50647;SDS011;36617;52.002;6.034;2023-04-24T12:44:56;5.32;;;1.35;;
50647;SDS011;36617;52.002;6.034;2023-04-24T12:47:22;5.17;;;1.33;;
50647;SDS011;36617;52.002;6.034;2023-04-24T12:49:47;2.87;;;1.13;;
50647;SDS011;36617;52.002;6.034;2023-04-24T12:52:15;5.32;;;1.10;;
50647;SDS011;36617;52.002;6.034;2023-04-24T12:54:42;3.58;;;1.10;;
50647;SDS011;36617;52.002;6.034;2023-04-24T12:57:07;2.37;;;0.93;;
50647;SDS011;36617;52.002;6.034;2023-04-24T12:59:32;4.17;;;1.23;;
50647;SDS011;36617;52.002;6.034;2023-04-24T13:01:57;5.27;;;1.10;;
50647;SDS011;36617;52.002;6.034;2023-04-24T13:04:23;4.53;;;1.00;;
50647;SDS011;36617;52.002;6.034;2023-04-24T13:06:48;3.93;;;1.20;;
50647;SDS011;36617;52.002;6.034;2023-04-24T13:09:13;4.67;;;1.17;;
50647;SDS011;36617;52.002;6.034;2023-04-24T13:11:38;4.80;;;1.20;;
50647;SDS011;36617;52.002;6.034;2023-04-24T13:14:03;6.70;;;1.40;;
50647;SDS011;36617;52.002;6.034;2023-04-24T13:16:28;5.80;;;1.27;;
50647;SDS011;36617;52.002;6.034;2023-04-24T13:18:54;5.83;;;1.20;;
50647;SDS011;36617;52.002;6.034;2023-04-24T13:21:19;5.75;;;1.23;;
50647;SDS011;36617;52.002;6.034;2023-04-24T13:23:44;4.90;;;1.10;;
50647;SDS011;36617;52.002;6.034;2023-04-24T13:26:10;4.50;;;1.03;;
50647;SDS011;36617;52.002;6.034;2023-04-24T13:28:35;4.10;;;0.93;;
50647;SDS011;36617;52.002;6.034;2023-04-24T13:31:00;5.37;;;1.27;;
50647;SDS011;36617;52.002;6.034;2023-04-24T13:33:25;4.77;;;1.10;;
50647;SDS011;36617;52.002;6.034;2023-04-24T13:35:51;5.37;;;1.10;;
50647;SDS011;36617;52.002;6.034;2023-04-24T13:38:16;4.40;;;1.10;;
50647;SDS011;36617;52.002;6.034;2023-04-24T13:40:41;3.30;;;0.90;;
50647;SDS011;36617;52.002;6.034;2023-04-24T13:43:06;5.10;;;1.10;;
50647;SDS011;36617;52.002;6.034;2023-04-24T13:45:31;3.63;;;1.20;;
50647;SDS011;36617;52.002;6.034;2023-04-24T13:47:57;5.50;;;1.00;;
50647;SDS011;36617;52.002;6.034;2023-04-24T13:50:22;5.93;;;1.27;;
50647;SDS011;36617;52.002;6.034;2023-04-24T13:52:47;4.67;;;1.10;;
50647;SDS011;36617;52.002;6.034;2023-04-24T13:55:12;4.37;;;1.00;;
50647;SDS011;36617;52.002;6.034;2023-04-24T13:57:37;2.90;;;1.00;;
50647;SDS011;36617;52.002;6.034;2023-04-24T14:00:03;7.57;;;1.10;;
50647;SDS011;36617;52.002;6.034;2023-04-24T14:02:28;11.10;;;1.40;;
50647;SDS011;36617;52.002;6.034;2023-04-24T14:04:54;5.87;;;1.10;;
50647;SDS011;36617;52.002;6.034;2023-04-24T14:07:19;4.13;;;1.13;;
50647;SDS011;36617;52.002;6.034;2023-04-24T14:09:44;4.17;;;1.00;;
50647;SDS011;36617;52.002;6.034;2023-04-24T14:12:09;4.37;;;1.00;;
50647;SDS011;36617;52.002;6.034;2023-04-24T14:14:35;2.50;;;0.95;;
50647;SDS011;36617;52.002;6.034;2023-04-24T14:17:00;3.17;;;1.00;;
50647;SDS011;36617;52.002;6.034;2023-04-24T14:19:25;3.13;;;0.90;;
50647;SDS011;36617;52.002;6.034;2023-04-24T14:21:50;3.03;;;1.00;;
50647;SDS011;36617;52.002;6.034;2023-04-24T14:24:16;3.03;;;1.00;;
50647;SDS011;36617;52.002;6.034;2023-04-24T14:26:41;3.93;;;1.03;;
50647;SDS011;36617;52.002;6.034;2023-04-24T14:29:06;3.77;;;1.07;;
50647;SDS011;36617;52.002;6.034;2023-04-24T14:31:31;4.33;;;1.10;;
50647;SDS011;36617;52.002;6.034;2023-04-24T14:33:56;4.57;;;1.07;;
50647;SDS011;36617;52.002;6.034;2023-04-24T14:36:22;3.08;;;1.00;;
50647;SDS011;36617;52.002;6.034;2023-04-24T14:38:47;4.57;;;1.20;;
50647;SDS011;36617;52.002;6.034;2023-04-24T14:41:12;4.67;;;1.03;;
50647;SDS011;36617;52.002;6.034;2023-04-24T14:43:38;3.35;;;1.00;;
50647;SDS011;36617;52.002;6.034;2023-04-24T14:46:03;3.03;;;1.03;;
50647;SDS011;36617;52.002;6.034;2023-04-24T14:48:29;4.43;;;1.23;;
50647;SDS011;36617;52.002;6.034;2023-04-24T14:50:55;4.60;;;1.08;;
50647;SDS011;36617;52.002;6.034;2023-04-24T14:53:20;5.27;;;1.20;;
50647;SDS011;36617;52.002;6.034;2023-04-24T14:55:45;4.13;;;1.10;;
50647;SDS011;36617;52.002;6.034;2023-04-24T14:58:10;4.43;;;1.20;;